createdAt,value
2022-12-09T00:01:21.005Z,0.71
2022-12-09T00:03:48.079Z,0.70
2022-12-09T00:06:22.149Z,0.71
2022-12-09T00:11:32.935Z,0.77
2022-12-09T00:13:59.718Z,0.76
2022-12-09T00:16:26.224Z,0.74
2022-12-09T00:18:53.038Z,0.74
2022-12-09T00:21:28.218Z,0.73
2022-12-09T00:23:55.729Z,0.74
2022-12-09T00:26:22.857Z,0.76
2022-12-09T00:28:49.977Z,0.72
2022-12-09T00:31:18.121Z,0.72
2022-12-09T00:33:44.585Z,0.72
2022-12-09T00:36:16.090Z,0.69
2022-12-09T00:38:43.184Z,0.66
2022-12-09T00:41:10.055Z,0.66
2022-12-09T00:43:36.455Z,0.67
2022-12-09T00:46:02.971Z,0.67
2022-12-09T00:48:29.463Z,0.70
2022-12-09T00:50:55.878Z,0.68
2022-12-09T00:53:22.599Z,0.68
2022-12-09T00:55:49.186Z,0.63
2022-12-09T00:58:16.069Z,0.58
2022-12-09T01:00:42.529Z,0.55
2022-12-09T01:03:12.822Z,0.52
2022-12-09T01:05:39.458Z,0.52
2022-12-09T01:08:06.383Z,0.55
2022-12-09T01:10:36.881Z,0.55
2022-12-09T01:13:05.491Z,0.53
2022-12-09T01:15:32.078Z,0.52
2022-12-09T01:17:58.788Z,0.45
2022-12-09T01:20:25.212Z,0.38
2022-12-09T01:22:51.635Z,0.31
2022-12-09T01:25:18.374Z,0.24
2022-12-09T01:27:44.864Z,0.19
2022-12-09T01:30:13.217Z,0.16
2022-12-09T01:32:40.189Z,0.15
2022-12-09T01:35:06.845Z,0.11
2022-12-09T01:37:34.140Z,0.11
2022-12-09T01:40:00.658Z,0.07
2022-12-09T01:42:27.484Z,0.05
2022-12-09T01:45:12.534Z,0.06
2022-12-09T01:47:39.157Z,0.05
2022-12-09T01:50:06.135Z,0.03
2022-12-09T01:52:33.339Z,0.03
2022-12-09T01:55:00.064Z,0.07
2022-12-09T01:57:26.518Z,0.12
2022-12-09T01:59:53.313Z,0.17
2022-12-09T02:02:20.454Z,0.23
2022-12-09T02:04:48.206Z,0.22
2022-12-09T02:07:15.083Z,0.22
2022-12-09T02:09:42.078Z,0.20
2022-12-09T02:12:08.530Z,0.22
2022-12-09T02:14:41.435Z,0.24
2022-12-09T02:17:10.772Z,0.24
2022-12-09T02:20:01.506Z,0.28
2022-12-09T02:22:40.461Z,0.28
2022-12-09T02:25:12.746Z,0.26
2022-12-09T02:27:51.120Z,0.27
2022-12-09T02:30:23.238Z,0.28
2022-12-09T02:33:01.695Z,0.30
2022-12-09T02:35:48.668Z,0.32
2022-12-09T02:38:21.518Z,0.39
2022-12-09T02:40:54.289Z,0.42
2022-12-09T02:43:28.586Z,0.39
2022-12-09T02:45:56.068Z,0.38
2022-12-09T02:48:24.449Z,0.39
2022-12-09T02:50:52.915Z,0.40
2022-12-09T02:53:20.255Z,0.39
2022-12-09T02:55:48.368Z,0.38
2022-12-09T02:58:15.063Z,0.37
2022-12-09T03:00:41.977Z,0.40
2022-12-09T03:03:13.627Z,0.41
2022-12-09T03:05:48.469Z,0.42
2022-12-09T03:08:33.994Z,0.43
2022-12-09T03:11:09.162Z,0.40
2022-12-09T03:13:35.544Z,0.43
2022-12-09T03:16:07.019Z,0.44
2022-12-09T03:18:36.155Z,0.44
2022-12-09T03:21:04.068Z,0.47
2022-12-09T03:23:31.019Z,0.52
2022-12-09T03:25:58.623Z,0.53
2022-12-09T03:28:28.503Z,0.49
2022-12-09T03:30:55.536Z,0.46
2022-12-09T03:33:23.508Z,0.44
2022-12-09T03:35:56.016Z,0.42
2022-12-09T03:38:23.548Z,0.41
2022-12-09T03:40:51.533Z,0.44
2022-12-09T03:43:33.447Z,0.43
2022-12-09T03:46:00.054Z,0.40
2022-12-09T03:48:26.701Z,0.38
2022-12-09T03:50:59.744Z,0.31
2022-12-09T03:53:32.230Z,0.20
2022-12-09T03:56:05.872Z,0.12
2022-12-09T03:58:33.401Z,0.02
2022-12-09T04:01:01.201Z,-0.06
2022-12-09T04:03:27.977Z,-0.14
2022-12-09T04:05:54.885Z,-0.20
2022-12-09T04:08:21.455Z,-0.27
2022-12-09T04:10:48.366Z,-0.29
2022-12-09T04:13:14.993Z,-0.32
2022-12-09T04:15:41.791Z,-0.39
2022-12-09T04:18:08.332Z,-0.45
2022-12-09T04:20:35.267Z,-0.55
2022-12-09T04:23:01.895Z,-0.64
2022-12-09T04:25:28.524Z,-0.71
2022-12-09T04:27:55.098Z,-0.75
2022-12-09T04:30:21.966Z,-0.81
2022-12-09T04:32:48.569Z,-0.86
2022-12-09T04:35:15.158Z,-0.87
2022-12-09T04:37:41.958Z,-0.85
2022-12-09T04:40:09.209Z,-0.91
2022-12-09T04:42:36.072Z,-0.97
2022-12-09T04:45:03.073Z,-1.05
2022-12-09T04:47:29.656Z,-1.10
2022-12-09T04:49:58.362Z,-1.16
2022-12-09T04:52:24.860Z,-1.20
2022-12-09T04:54:51.305Z,-1.23
2022-12-09T04:57:18.053Z,-1.26
2022-12-09T04:59:44.651Z,-1.30
2022-12-09T05:02:11.259Z,-1.32
2022-12-09T05:04:37.954Z,-1.30
2022-12-09T05:07:04.942Z,-1.31
2022-12-09T05:09:32.332Z,-1.35
2022-12-09T05:11:59.289Z,-1.37
2022-12-09T05:14:25.871Z,-1.37
2022-12-09T05:16:52.468Z,-1.35
2022-12-09T05:19:19.395Z,-1.33
2022-12-09T05:21:46.435Z,-1.36
2022-12-09T05:24:13.168Z,-1.42
2022-12-09T05:26:40.062Z,-1.49
2022-12-09T05:29:06.602Z,-1.54
2022-12-09T05:31:33.404Z,-1.56
2022-12-09T05:34:00.512Z,-1.60
2022-12-09T05:36:30.405Z,-1.64
2022-12-09T05:38:57.248Z,-1.70
2022-12-09T05:41:24.392Z,-1.75
2022-12-09T05:43:51.811Z,-1.81
2022-12-09T05:46:19.219Z,-1.83
2022-12-09T05:48:46.047Z,-1.80
2022-12-09T05:51:18.153Z,-1.78
2022-12-09T05:53:45.022Z,-1.74
2022-12-09T05:56:15.265Z,-1.73
2022-12-09T05:58:42.163Z,-1.73
2022-12-09T06:01:09.432Z,-1.69
2022-12-09T06:03:36.889Z,-1.68
2022-12-09T06:06:08.427Z,-1.67
2022-12-09T06:08:35.716Z,-1.66
2022-12-09T06:11:03.155Z,-1.66
2022-12-09T06:13:29.832Z,-1.64
2022-12-09T06:15:56.767Z,-1.60
2022-12-09T06:18:23.745Z,-1.58
2022-12-09T06:20:50.741Z,-1.54
2022-12-09T06:23:17.706Z,-1.50
2022-12-09T06:25:45.833Z,-1.42
2022-12-09T06:28:12.990Z,-1.38
2022-12-09T06:30:40.121Z,-1.35
2022-12-09T06:33:23.103Z,-1.29
2022-12-09T06:35:53.475Z,-1.31
2022-12-09T06:38:20.238Z,-1.39
2022-12-09T06:40:47.223Z,-1.39
2022-12-09T06:43:13.897Z,-1.40
2022-12-09T06:45:40.603Z,-1.33
2022-12-09T06:48:07.216Z,-1.29
2022-12-09T06:50:33.703Z,-1.25
2022-12-09T06:53:00.862Z,-1.18
2022-12-09T06:55:27.483Z,-1.16
2022-12-09T06:57:54.123Z,-1.19
2022-12-09T07:00:20.929Z,-1.20
2022-12-09T07:02:47.769Z,-1.15
2022-12-09T07:05:14.848Z,-1.12
2022-12-09T07:07:42.594Z,-1.09
2022-12-09T07:10:10.496Z,-1.05
2022-12-09T07:12:37.177Z,-1.03
2022-12-09T07:15:04.166Z,-0.99
2022-12-09T07:17:31.155Z,-0.95
2022-12-09T07:20:03.407Z,-0.89
2022-12-09T07:22:33.703Z,-0.81
2022-12-09T07:25:00.342Z,-0.75
2022-12-09T07:27:27.409Z,-0.68
2022-12-09T07:29:54.143Z,-0.64
2022-12-09T07:32:20.766Z,-0.60
2022-12-09T07:34:47.352Z,-0.58
2022-12-09T07:37:14.507Z,-0.57
2022-12-09T07:39:41.290Z,-0.58
2022-12-09T07:42:08.269Z,-0.59
2022-12-09T07:44:35.081Z,-0.60
2022-12-09T07:47:01.917Z,-0.54
2022-12-09T07:49:28.955Z,-0.49
2022-12-09T07:51:55.627Z,-0.54
2022-12-09T07:54:22.091Z,-0.56
2022-12-09T07:56:48.917Z,-0.56
2022-12-09T07:59:16.346Z,-0.55
2022-12-09T08:01:45.381Z,-0.53
2022-12-09T08:04:12.510Z,-0.50
2022-12-09T08:06:39.210Z,-0.42
2022-12-09T08:09:08.389Z,-0.41
2022-12-09T08:11:35.170Z,-0.33
2022-12-09T08:14:07.413Z,-0.30
2022-12-09T08:16:37.567Z,-0.27
2022-12-09T08:19:04.458Z,-0.27
2022-12-09T08:21:32.811Z,-0.21
2022-12-09T08:24:01.135Z,-0.13
2022-12-09T08:26:29.527Z,-0.13
2022-12-09T08:28:56.492Z,-0.19
2022-12-09T08:31:24.724Z,-0.23
2022-12-09T08:33:52.138Z,-0.20
2022-12-09T08:36:19.817Z,-0.11
2022-12-09T08:38:46.828Z,-0.10
2022-12-09T08:41:17.701Z,-0.11
2022-12-09T08:43:45.040Z,-0.08
2022-12-09T08:46:12.171Z,-0.05
2022-12-09T08:48:40.740Z,-0.06
2022-12-09T08:51:08.650Z,-0.02
2022-12-09T08:53:35.250Z,0.05
2022-12-09T08:56:12.240Z,0.10
2022-12-09T08:58:39.558Z,0.14
2022-12-09T09:01:06.501Z,0.17
2022-12-09T09:03:33.489Z,0.11
2022-12-09T09:06:07.068Z,0.13
2022-12-09T09:08:36.593Z,0.15
2022-12-09T09:11:10.466Z,0.16
2022-12-09T09:13:39.252Z,0.26
2022-12-09T09:16:11.665Z,0.29
2022-12-09T09:18:39.386Z,0.38
2022-12-09T09:21:06.944Z,0.47
2022-12-09T09:23:34.074Z,0.58
2022-12-09T09:26:00.652Z,0.68
2022-12-09T09:28:30.891Z,0.82
2022-12-09T09:30:59.097Z,0.94
2022-12-09T09:33:25.726Z,1.05
2022-12-09T09:35:56.570Z,1.10
2022-12-09T09:38:23.174Z,1.15
2022-12-09T09:40:50.027Z,1.16
2022-12-09T09:43:18.152Z,1.14
2022-12-09T09:45:45.359Z,1.16
2022-12-09T09:48:15.660Z,1.12
2022-12-09T09:51:03.760Z,1.04
2022-12-09T09:53:32.135Z,1.04
2022-12-09T09:56:00.179Z,1.03
2022-12-09T09:58:33.366Z,1.03
2022-12-09T10:01:08.620Z,1.06
2022-12-09T10:03:54.965Z,1.10
2022-12-09T10:06:31.332Z,1.08
2022-12-09T10:09:03.121Z,1.08
2022-12-09T10:12:00.894Z,1.13
2022-12-09T10:14:34.458Z,1.20
2022-12-09T10:17:13.833Z,1.13
2022-12-09T10:19:43.667Z,1.14
2022-12-09T10:22:15.505Z,1.19
2022-12-09T10:24:47.604Z,1.21
2022-12-09T10:27:29.784Z,1.27
2022-12-09T10:30:02.435Z,1.32
2022-12-09T10:32:30.727Z,1.33
2022-12-09T10:34:58.210Z,1.32
2022-12-09T10:37:32.999Z,1.35
2022-12-09T10:40:12.169Z,1.37
2022-12-09T10:43:05.730Z,1.42
2022-12-09T10:46:07.987Z,1.43
2022-12-09T10:48:21.120Z,1.48
2022-12-09T10:50:48.481Z,1.54
2022-12-09T10:53:16.006Z,1.55
2022-12-09T10:55:44.883Z,1.56
2022-12-09T10:58:17.670Z,1.53
2022-12-09T11:00:57.687Z,1.59
2022-12-09T11:03:26.359Z,1.65
2022-12-09T11:05:58.000Z,1.69
2022-12-09T11:08:25.075Z,1.73
2022-12-09T11:10:51.967Z,1.77
2022-12-09T11:13:20.207Z,1.75
2022-12-09T11:15:51.401Z,1.77
2022-12-09T11:18:24.916Z,1.75
2022-12-09T11:21:00.003Z,1.78
2022-12-09T11:23:27.236Z,1.83
2022-12-09T11:25:54.821Z,1.88
2022-12-09T11:28:29.518Z,1.92
2022-12-09T11:34:06.563Z,2.03
2022-12-09T11:36:37.278Z,2.09
2022-12-09T11:39:09.503Z,2.14
2022-12-09T11:41:54.381Z,2.15
2022-12-09T11:44:23.535Z,2.14
2022-12-09T11:47:05.136Z,2.16
2022-12-09T11:49:34.699Z,2.18
2022-12-09T11:52:03.512Z,2.18
2022-12-09T11:54:29.911Z,2.21
2022-12-09T11:56:56.958Z,2.22
2022-12-09T11:59:36.313Z,2.24
2022-12-09T12:02:16.062Z,2.28
2022-12-09T12:04:52.548Z,2.35
2022-12-09T12:07:23.997Z,2.41
2022-12-09T12:09:50.368Z,2.40
2022-12-09T12:12:29.310Z,2.38
2022-12-09T12:14:58.708Z,2.40
2022-12-09T12:17:27.074Z,2.41
2022-12-09T12:19:56.348Z,2.41
2022-12-09T12:22:34.698Z,2.42
2022-12-09T12:25:04.139Z,2.45
2022-12-09T12:27:33.291Z,2.44
2022-12-09T12:30:04.221Z,2.43
2022-12-09T12:32:52.266Z,2.42
2022-12-09T12:35:30.804Z,2.48
2022-12-09T12:38:15.373Z,2.57
2022-12-09T12:40:41.745Z,2.61
2022-12-09T12:43:37.624Z,2.63
2022-12-09T12:46:19.217Z,2.68
2022-12-09T12:49:04.966Z,2.70
2022-12-09T12:51:34.444Z,2.73
2022-12-09T12:54:00.791Z,2.75
2022-12-09T12:56:47.451Z,2.73
2022-12-09T12:59:16.803Z,2.76
2022-12-09T13:01:52.128Z,2.76
2022-12-09T13:04:27.592Z,2.77
2022-12-09T13:07:20.516Z,2.71
2022-12-09T13:09:53.476Z,2.73
2022-12-09T13:12:42.741Z,2.71
2022-12-09T13:15:11.784Z,2.75
2022-12-09T13:17:38.595Z,2.75
2022-12-09T13:20:05.813Z,2.72
2022-12-09T13:22:44.236Z,2.69
2022-12-09T13:25:29.912Z,2.66
2022-12-09T13:28:06.505Z,2.70
2022-12-09T13:30:36.624Z,2.74
2022-12-09T13:33:03.038Z,2.76
2022-12-09T13:35:29.465Z,2.78
2022-12-09T13:37:56.823Z,2.78
2022-12-09T13:40:30.790Z,2.76
2022-12-09T13:43:03.159Z,2.72
2022-12-09T13:45:29.561Z,2.72
2022-12-09T13:47:57.149Z,2.72
2022-12-09T13:50:27.200Z,2.74
2022-12-09T13:52:55.633Z,2.79
2022-12-09T13:55:48.995Z,2.83
2022-12-09T13:58:27.260Z,2.84
2022-12-09T14:01:04.915Z,2.86
2022-12-09T14:03:35.906Z,2.88
2022-12-09T14:06:05.917Z,2.85
2022-12-09T14:08:34.564Z,2.87
2022-12-09T14:11:20.912Z,2.88
2022-12-09T14:13:47.340Z,2.86
2022-12-09T14:16:15.458Z,2.85
2022-12-09T14:18:42.371Z,2.84
2022-12-09T14:21:17.883Z,2.83
2022-12-09T14:24:03.070Z,2.85
2022-12-09T14:26:38.568Z,2.80
2022-12-09T14:29:05.753Z,2.72
2022-12-09T14:31:59.037Z,2.70
2022-12-09T14:34:36.191Z,2.70
2022-12-09T14:37:29.385Z,2.74
2022-12-09T14:39:59.724Z,2.78
2022-12-09T14:42:31.109Z,2.76
2022-12-09T14:45:13.344Z,2.76
2022-12-09T14:47:42.357Z,2.77
2022-12-09T14:50:13.675Z,2.77
2022-12-09T14:52:49.234Z,2.75
2022-12-09T14:55:16.024Z,2.68
2022-12-09T14:57:46.966Z,2.70
2022-12-09T15:00:32.016Z,2.71
2022-12-09T15:03:30.739Z,2.71
2022-12-09T15:05:55.942Z,2.71
2022-12-09T15:08:33.263Z,2.68
2022-12-09T15:11:01.454Z,2.55
2022-12-09T15:13:28.119Z,2.47
2022-12-09T15:15:54.759Z,2.47
2022-12-09T15:18:22.722Z,2.46
2022-12-09T15:20:51.119Z,2.52
2022-12-09T15:23:17.521Z,2.52
2022-12-09T15:25:48.104Z,2.57
2022-12-09T15:28:16.531Z,2.57
2022-12-09T15:30:44.410Z,2.52
2022-12-09T15:33:18.058Z,2.46
2022-12-09T15:35:51.165Z,2.48
2022-12-09T15:38:17.836Z,2.41
2022-12-09T15:41:05.305Z,2.41
2022-12-09T15:43:31.980Z,2.46
2022-12-09T15:45:58.401Z,2.51
2022-12-09T15:48:28.480Z,2.55
2022-12-09T15:50:57.189Z,2.54
2022-12-09T15:53:30.588Z,2.55
2022-12-09T15:56:17.252Z,2.54
2022-12-09T15:58:48.193Z,2.52
2022-12-09T16:01:20.177Z,2.57
2022-12-09T16:03:48.708Z,2.58
2022-12-09T16:06:15.206Z,2.56
2022-12-09T16:08:43.390Z,2.53
2022-12-09T16:11:10.090Z,2.52
2022-12-09T16:13:37.725Z,2.49
2022-12-09T16:16:23.974Z,2.48
2022-12-09T16:18:50.457Z,2.51
2022-12-09T16:21:25.974Z,2.55
2022-12-09T16:23:53.736Z,2.52
2022-12-09T16:26:23.209Z,2.53
2022-12-09T16:28:54.338Z,2.51
2022-12-09T16:31:20.844Z,2.40
2022-12-09T16:33:48.867Z,2.42
2022-12-09T16:36:18.165Z,2.38
2022-12-09T16:39:00.459Z,2.37
2022-12-09T16:41:46.789Z,2.41
2022-12-09T16:44:18.756Z,2.48
2022-12-09T16:46:45.155Z,2.47
2022-12-09T16:49:11.609Z,2.48
2022-12-09T16:51:38.985Z,2.47
2022-12-09T16:54:20.254Z,2.49
2022-12-09T16:56:47.306Z,2.49
2022-12-09T16:59:13.677Z,2.54
2022-12-09T17:01:41.537Z,2.57
2022-12-09T17:04:34.700Z,2.54
2022-12-09T17:07:01.071Z,2.53
2022-12-09T17:09:27.508Z,2.57
2022-12-09T17:11:53.887Z,2.60
2022-12-09T17:14:20.251Z,2.59
2022-12-09T17:16:46.771Z,2.53
2022-12-09T17:19:13.261Z,2.55
2022-12-09T17:21:39.669Z,2.57
2022-12-09T17:24:06.490Z,2.59
2022-12-09T17:26:32.862Z,2.60
2022-12-09T17:29:01.894Z,2.59
2022-12-09T17:31:29.002Z,2.64
2022-12-09T17:33:56.175Z,2.66
2022-12-09T17:36:22.726Z,2.67
2022-12-09T17:38:49.091Z,2.66
2022-12-09T17:41:20.654Z,2.68
2022-12-09T17:43:47.645Z,2.67
2022-12-09T17:46:14.218Z,2.67
2022-12-09T17:48:41.796Z,2.68
2022-12-09T17:51:09.933Z,2.68
2022-12-09T17:53:36.879Z,2.67
2022-12-09T17:56:09.998Z,2.67
2022-12-09T17:58:36.532Z,2.66
2022-12-09T18:01:03.434Z,2.66
2022-12-09T18:03:54.484Z,2.68
2022-12-09T18:06:16.359Z,2.68
2022-12-09T18:08:42.760Z,2.65
2022-12-09T18:11:10.457Z,2.62
2022-12-09T18:13:37.068Z,2.61
2022-12-09T18:16:10.519Z,2.64
2022-12-09T18:18:37.627Z,2.63
2022-12-09T18:21:04.131Z,2.65
2022-12-09T18:23:30.716Z,2.64
2022-12-09T18:25:57.792Z,2.57
2022-12-09T18:28:27.619Z,2.53
2022-12-09T18:30:54.894Z,2.57
2022-12-09T18:33:22.386Z,2.59
2022-12-09T18:35:48.794Z,2.61
2022-12-09T18:38:16.471Z,2.64
2022-12-09T18:41:01.060Z,2.67
2022-12-09T18:43:31.853Z,2.69
2022-12-09T18:46:03.191Z,2.68
2022-12-09T18:48:30.628Z,2.69
2022-12-09T18:50:56.993Z,2.71
2022-12-09T18:53:23.691Z,2.67
2022-12-09T18:55:50.149Z,2.63
2022-12-09T18:58:16.602Z,2.64
2022-12-09T19:00:43.006Z,2.65
2022-12-09T19:03:09.427Z,2.69
2022-12-09T19:05:42.158Z,2.67
2022-12-09T19:08:08.805Z,2.64
2022-12-09T19:10:35.688Z,2.67
2022-12-09T19:13:02.464Z,2.67
2022-12-09T19:15:29.149Z,2.68
2022-12-09T19:17:55.638Z,2.63
2022-12-09T19:20:23.177Z,2.65
2022-12-09T19:22:49.599Z,2.67
2022-12-09T19:25:16.036Z,2.69
2022-12-09T19:27:42.423Z,2.70
2022-12-09T19:30:09.408Z,2.70
2022-12-09T19:32:53.094Z,2.71
2022-12-09T19:35:19.795Z,2.70
2022-12-09T19:37:46.166Z,2.72
2022-12-09T19:40:12.713Z,2.73
2022-12-09T19:42:39.905Z,2.74
2022-12-09T19:45:10.555Z,2.75
2022-12-09T19:47:40.241Z,2.74
2022-12-09T19:50:07.472Z,2.75
2022-12-09T19:52:34.199Z,2.77
2022-12-09T19:55:00.636Z,2.77
2022-12-09T19:57:27.013Z,2.78
2022-12-09T19:59:53.484Z,2.76
2022-12-09T20:02:19.879Z,2.78
2022-12-09T20:04:49.023Z,2.71
2022-12-09T20:07:16.810Z,2.65
2022-12-09T20:09:43.204Z,2.65
2022-12-09T20:12:09.638Z,2.68
2022-12-09T20:14:36.240Z,2.71
2022-12-09T20:17:02.628Z,2.75
2022-12-09T20:19:29.089Z,2.75
2022-12-09T20:21:55.570Z,2.74
2022-12-09T20:24:22.077Z,2.75
2022-12-09T20:26:48.537Z,2.73
2022-12-09T20:29:14.922Z,2.74
2022-12-09T20:31:41.874Z,2.73
2022-12-09T20:34:11.657Z,2.73
2022-12-09T20:36:39.755Z,2.72
2022-12-09T20:39:12.349Z,2.74
2022-12-09T20:41:39.329Z,2.71
2022-12-09T20:44:05.926Z,2.68
2022-12-09T20:46:33.494Z,2.62
2022-12-09T20:49:00.335Z,2.56
2022-12-09T20:51:28.991Z,2.60
2022-12-09T20:53:55.861Z,2.63
2022-12-09T20:56:22.793Z,2.65
2022-12-09T20:58:51.075Z,2.66
2022-12-09T21:01:19.555Z,2.65
2022-12-09T21:03:46.413Z,2.64
2022-12-09T21:06:15.829Z,2.64
2022-12-09T21:08:42.768Z,2.65
2022-12-09T21:11:14.773Z,2.69
2022-12-09T21:13:42.697Z,2.72
2022-12-09T21:16:10.588Z,2.70
2022-12-09T21:18:37.047Z,2.67
2022-12-09T21:21:03.976Z,2.64
2022-12-09T21:23:34.608Z,2.61
2022-12-09T21:26:05.939Z,2.62
2022-12-09T21:28:32.594Z,2.56
2022-12-09T21:30:58.996Z,2.59
2022-12-09T21:33:25.458Z,2.62
2022-12-09T21:35:51.846Z,2.65
2022-12-09T21:38:18.246Z,2.68
2022-12-09T21:40:45.363Z,2.68
2022-12-09T21:43:11.725Z,2.60
2022-12-09T21:45:38.123Z,2.56
2022-12-09T21:48:04.640Z,2.60
2022-12-09T21:50:31.507Z,2.63
2022-12-09T21:52:57.959Z,2.67
2022-12-09T21:55:24.342Z,2.69
2022-12-09T21:57:50.705Z,2.71
2022-12-09T22:00:17.188Z,2.72
2022-12-09T22:02:44.530Z,2.74
2022-12-09T22:05:10.983Z,2.72
2022-12-09T22:07:37.419Z,2.69
2022-12-09T22:10:03.913Z,2.71
2022-12-09T22:12:30.293Z,2.74
2022-12-09T22:14:56.841Z,2.74
2022-12-09T22:17:23.214Z,2.72
2022-12-09T22:20:00.492Z,2.70
2022-12-09T22:22:36.740Z,2.72
2022-12-09T22:25:03.294Z,2.71
2022-12-09T22:27:29.668Z,2.65
2022-12-09T22:29:56.049Z,2.64
2022-12-09T22:32:22.410Z,2.65
2022-12-09T22:34:48.957Z,2.60
2022-12-09T22:37:42.461Z,2.57
2022-12-09T22:40:05.783Z,2.59
2022-12-09T22:42:32.421Z,2.62
2022-12-09T22:44:59.209Z,2.64
2022-12-09T22:47:25.584Z,2.67
2022-12-09T22:49:51.996Z,2.67
2022-12-09T22:52:21.435Z,2.67
2022-12-09T22:54:47.909Z,2.69
2022-12-09T22:57:14.387Z,2.72
2022-12-09T22:59:43.086Z,2.72
2022-12-09T23:02:09.823Z,2.72
2022-12-09T23:04:36.506Z,2.71
2022-12-09T23:07:03.020Z,2.73
2022-12-09T23:09:29.429Z,2.73
2022-12-09T23:11:55.827Z,2.74
2022-12-09T23:14:22.318Z,2.73
2022-12-09T23:16:48.780Z,2.72
2022-12-09T23:19:15.605Z,2.73
2022-12-09T23:21:43.072Z,2.75
2022-12-09T23:24:13.827Z,2.77
2022-12-09T23:26:41.002Z,2.73
2022-12-09T23:29:08.388Z,2.71
2022-12-09T23:31:36.147Z,2.72
2022-12-09T23:34:04.310Z,2.74
2022-12-09T23:36:32.208Z,2.74
2022-12-09T23:38:59.005Z,2.74
2022-12-09T23:41:25.556Z,2.74
2022-12-09T23:43:52.495Z,2.75
2022-12-09T23:46:20.287Z,2.75
2022-12-09T23:48:47.659Z,2.76
2022-12-09T23:51:14.020Z,2.75
2022-12-09T23:53:41.493Z,2.75
2022-12-09T23:56:10.089Z,2.76
2022-12-09T23:58:36.448Z,2.74
